Terminal Aerodrome Forecast
Issued by NWS Charleston, WV

Current Version | Previous Version | Graphics & Text | Print | Product List | Glossary On
Versions: 1 2 3 4 5 6 7 8 9 10 11 12 13 14 15 16 17 18 19 20 21 22 23 24 25 26
000
FTUS41 KRLX 270411 AAB
TAFHTS
TAF AMD
KHTS 270411Z 2704/2724 13003KT 5SM BR FEW002
     FM270500 00000KT 2SM BR SCT002
     FM270700 00000KT 1SM BR BKN001
     FM270800 00000KT 1/4SM FG OVC001
     FM271100 00000KT 2SM BR BKN008
     FM271300 00000KT P6SM BKN040=

USA.gov is the U.S. government's official web portal to all federal, state and local government web resources and services.